Time;durP1;ratioP1;P1;durP2;ratioP2;P2;SDS_P1;SDS_P2;PMS_P1;PMS_P2;Temp;Humidity;BMP_temperature;BMP_pressure;BME280_temperature;BME280_humidity;BME280_pressure;Samples;Min_cycle;Max_cycle;Signal;HPM_P1;HPM_P2
2021/12/14 00:01:34;;;;;;;3.75;3.55;;;17.20;66.70;;;;;;5034457;28;20126;-24
2021/12/14 00:04:12;;;;;;;3.67;3.47;;;17.20;66.70;;;;;;5034977;28;20045;-28
2021/12/14 00:06:40;;;;;;;3.33;3.13;;;17.20;66.50;;;;;;5015243;28;20046;-27
2021/12/14 00:09:08;;;;;;;3.30;3.10;;;17.20;66.40;;;;;;5002393;28;20046;-31
2021/12/14 00:16:41;;;;;;;3.00;2.90;;;17.20;66.40;;;;;;5015200;28;20572;-25
2021/12/14 00:19:07;;;;;;;3.22;3.03;;;17.20;66.50;;;;;;5014604;28;20053;-21
2021/12/14 00:21:34;;;;;;;3.10;2.90;;;17.20;66.50;;;;;;5034151;28;20045;-26
2021/12/14 00:24:06;;;;;;;2.90;2.80;;;17.20;66.30;;;;;;5054846;28;20037;-23
2021/12/14 00:26:33;;;;;;;2.75;2.65;;;17.20;66.40;;;;;;5054541;28;20115;-26
2021/12/14 00:28:59;;;;;;;3.00;2.80;;;17.20;66.40;;;;;;5054953;28;20106;-25
2021/12/14 00:31:25;;;;;;;2.80;2.60;;;17.20;66.40;;;;;;5054511;28;20049;-31
2021/12/14 00:33:53;;;;;;;3.88;2.88;;;17.20;66.50;;;;;;5042818;28;20045;-24
2021/12/14 00:36:18;;;;;;;2.63;2.53;;;17.20;66.40;;;;;;5034442;28;20067;-26
2021/12/14 00:38:44;;;;;;;2.60;2.50;;;17.20;66.40;;;;;;5035224;28;20128;-23
2021/12/14 00:41:18;;;;;;;2.22;2.13;;;17.20;66.40;;;;;;5035173;28;20104;-25
2021/12/14 00:43:44;;;;;;;2.60;2.50;;;17.20;66.40;;;;;;5014697;28;20054;-28
2021/12/14 00:46:09;;;;;;;2.72;2.53;;;17.20;66.50;;;;;;5015231;28;20088;-25
2021/12/14 00:48:35;;;;;;;2.25;2.15;;;17.20;66.50;;;;;;5024504;28;20053;-28
2021/12/14 00:51:02;;;;;;;2.65;2.55;;;17.20;66.50;;;;;;5020476;28;20522;-28
2021/12/14 00:53:27;;;;;;;2.38;2.28;;;17.20;66.50;;;;;;5031934;28;20045;-24
2021/12/14 00:55:54;;;;;;;2.30;2.20;;;17.20;66.40;;;;;;5015347;28;20510;-25
2021/12/14 00:58:20;;;;;;;2.60;2.50;;;17.20;66.40;;;;;;5014629;28;20050;-22
2021/12/14 01:00:52;;;;;;;2.30;2.20;;;17.20;66.40;;;;;;5015135;28;20042;-22
2021/12/14 01:03:17;;;;;;;2.50;2.40;;;17.20;66.50;;;;;;5014549;28;20049;-25
2021/12/14 01:05:45;;;;;;;2.60;2.47;;;17.20;66.50;;;;;;5014868;28;20054;-25
2021/12/14 01:08:13;;;;;;;2.40;2.30;;;17.20;66.50;;;;;;5015212;28;20053;-21
2021/12/14 01:10:46;;;;;;;2.63;2.50;;;17.20;66.40;;;;;;5014733;28;20053;-26
2021/12/14 01:13:11;;;;;;;2.17;2.08;;;17.20;66.40;;;;;;5015176;28;20042;-27
2021/12/14 01:15:53;;;;;;;2.42;2.22;;;17.20;66.30;;;;;;5014490;28;20046;-24
2021/12/14 01:24:01;;;;;;;2.28;2.17;;;17.20;66.30;;;;;;5054783;28;20620;-27
2021/12/14 01:26:29;;;;;;;2.30;2.20;;;17.20;67.10;;;;;;5053890;28;20045;-27
2021/12/14 01:28:55;;;;;;;2.08;1.98;;;17.20;66.30;;;;;;5054007;28;20064;-23
2021/12/14 01:31:29;;;;;;;2.80;2.60;;;17.20;66.20;;;;;;5056102;28;20052;-25
2021/12/14 01:33:59;;;;;;;;;;;17.20;66.30;;;;;;5050864;28;20048;-29
2021/12/14 01:41:52;;;;;;;2.17;2.08;;;17.20;66.30;;;;;;5037668;28;20092;-22
2021/12/14 01:44:17;;;;;;;2.22;2.13;;;17.20;66.30;;;;;;5045573;28;20132;-27
2021/12/14 01:46:45;;;;;;;2.00;1.90;;;17.20;66.20;;;;;;5038071;28;20069;-22
2021/12/14 01:49:12;;;;;;;1.98;1.88;;;17.20;66.20;;;;;;5037787;28;20060;-24
2021/12/14 01:51:39;;;;;;;2.17;2.08;;;17.20;66.20;;;;;;5037412;28;20061;-28
2021/12/14 01:54:06;;;;;;;2.00;1.90;;;17.20;66.20;;;;;;5038073;28;20042;-22
2021/12/14 01:56:32;;;;;;;2.08;1.98;;;17.10;66.20;;;;;;5037301;28;20045;-25
2021/12/14 01:59:04;;;;;;;2.03;1.92;;;17.10;66.20;;;;;;5037774;28;20099;-26
2021/12/14 02:01:37;;;;;;;2.13;2.03;;;17.20;66.30;;;;;;5029420;28;20425;-28
2021/12/14 02:04:09;;;;;;;1.70;1.60;;;17.10;66.10;;;;;;5037675;28;20052;-26
2021/12/14 02:06:35;;;;;;;1.98;1.88;;;17.10;66.20;;;;;;5037206;28;20497;-24
2021/12/14 02:09:04;;;;;;;1.50;1.40;;;17.00;66.30;;;;;;5037749;28;20041;-29
2021/12/14 02:11:33;;;;;;;1.85;1.75;;;17.00;66.50;;;;;;5037053;28;20553;-25
2021/12/14 02:13:59;;;;;;;1.73;1.63;;;17.00;66.50;;;;;;5037479;28;20045;-23
2021/12/14 02:16:25;;;;;;;1.98;1.88;;;17.10;66.40;;;;;;5036916;28;20468;-26
2021/12/14 02:18:53;;;;;;;1.83;1.73;;;17.10;66.40;;;;;;5037695;28;20052;-27
2021/12/14 02:21:19;;;;;;;1.83;1.73;;;17.10;66.20;;;;;;5045116;28;20068;-26
2021/12/14 02:23:47;;;;;;;2.00;1.90;;;17.00;66.30;;;;;;5076864;28;20098;-27
2021/12/14 02:26:17;;;;;;;1.98;1.88;;;17.00;66.30;;;;;;5077160;28;20040;-22
2021/12/14 02:28:43;;;;;;;1.40;1.40;;;17.00;66.40;;;;;;5076551;28;20036;-26
2021/12/14 02:31:11;;;;;;;1.70;1.60;;;17.00;66.50;;;;;;5076956;28;20424;-25
2021/12/14 02:33:38;;;;;;;1.88;1.77;;;17.00;66.40;;;;;;5063517;28;20103;-26
2021/12/14 02:36:12;;;;;;;1.80;1.70;;;17.00;66.30;;;;;;5032816;28;20132;-25
2021/12/14 02:38:42;;;;;;;1.77;1.67;;;17.00;66.40;;;;;;5024392;28;20041;-24
2021/12/14 02:41:07;;;;;;;2.10;2.00;;;17.00;66.30;;;;;;5032423;28;20038;-27
2021/12/14 02:43:33;;;;;;;1.50;1.45;;;17.00;66.40;;;;;;5042215;28;20045;-24
2021/12/14 02:46:09;;;;;;;1.45;1.40;;;17.00;66.40;;;;;;5036833;28;20052;-29
2021/12/14 02:48:35;;;;;;;1.30;1.30;;;17.00;66.40;;;;;;5036256;28;20114;-26
2021/12/14 02:51:06;;;;;;;1.27;1.27;;;16.90;66.40;;;;;;5036888;28;20050;-25
2021/12/14 02:53:32;;;;;;;1.33;1.33;;;16.90;66.50;;;;;;5036249;28;20042;-27
2021/12/14 02:55:57;;;;;;;1.85;1.75;;;16.90;66.40;;;;;;5036867;28;20440;-29
2021/12/14 02:58:23;;;;;;;1.58;1.48;;;16.90;66.40;;;;;;5036221;28;20522;-28
2021/12/14 03:00:50;;;;;;;1.60;1.50;;;17.00;66.40;;;;;;5036474;28;20103;-23
2021/12/14 03:03:16;;;;;;;1.48;1.40;;;16.90;66.40;;;;;;5036502;28;20041;-25
2021/12/14 03:05:43;;;;;;;1.70;1.60;;;16.90;66.40;;;;;;5035580;28;20060;-22
2021/12/14 03:08:15;;;;;;;1.60;1.50;;;17.00;66.40;;;;;;5036724;28;20124;-22
2021/12/14 03:11:10;;;;;;;1.77;1.67;;;16.90;67.10;;;;;;5036013;28;20045;-27
2021/12/14 03:13:37;;;;;;;1.30;1.30;;;16.90;66.30;;;;;;5035608;28;20048;-30
2021/12/14 03:16:06;;;;;;;1.60;1.50;;;16.90;66.30;;;;;;5036512;28;20057;-25
2021/12/14 03:18:38;;;;;;;1.60;1.50;;;16.90;66.30;;;;;;5035858;28;20375;-22
2021/12/14 03:21:10;;;;;;;1.50;1.40;;;16.90;66.30;;;;;;5042078;28;20107;-21
2021/12/14 03:23:43;;;;;;;1.20;1.20;;;17.00;66.30;;;;;;5055716;28;20480;-24
2021/12/14 03:26:10;;;;;;;1.20;1.20;;;16.90;66.30;;;;;;5056152;28;20049;-27
2021/12/14 03:28:36;;;;;;;1.70;1.60;;;16.90;66.20;;;;;;5055429;28;20037;-29
2021/12/14 03:31:09;;;;;;;1.67;1.58;;;16.90;66.30;;;;;;5054855;28;20057;-23
2021/12/14 03:33:44;;;;;;;1.55;1.45;;;16.90;66.20;;;;;;5045391;28;20057;-22
2021/12/14 03:36:16;;;;;;;1.20;1.20;;;16.90;66.30;;;;;;5036020;28;20046;-29
2021/12/14 03:38:46;;;;;;;1.75;1.65;;;16.90;66.20;;;;;;5035479;28;20041;-28
2021/12/14 03:41:17;;;;;;;1.60;1.50;;;16.90;66.30;;;;;;5035937;28;20065;-25
2021/12/14 03:43:58;;;;;;;1.48;1.38;;;16.90;66.30;;;;;;5015443;28;20049;-25
2021/12/14 03:46:26;;;;;;;1.05;1.05;;;16.90;66.20;;;;;;5016209;28;20049;-26
2021/12/14 03:48:51;;;;;;;1.52;1.42;;;16.90;66.20;;;;;;5015597;28;20410;-26
2021/12/14 03:51:23;;;;;;;1.33;1.23;;;16.90;66.20;;;;;;5015967;28;20108;-27
2021/12/14 03:53:50;;;;;;;1.25;1.20;;;16.90;66.20;;;;;;5015390;28;20042;-29
2021/12/14 03:56:16;;;;;;;1.20;1.20;;;16.90;66.20;;;;;;5031152;28;20049;-23
2021/12/14 03:58:42;;;;;;;1.35;1.30;;;16.90;66.20;;;;;;5015226;28;20045;-24
2021/12/14 04:01:17;;;;;;;1.30;1.30;;;16.90;66.20;;;;;;5024767;28;20046;-27
2021/12/14 04:03:44;;;;;;;1.45;1.35;;;16.80;66.10;;;;;;5023905;28;20635;-22
2021/12/14 04:06:09;;;;;;;1.48;1.38;;;16.80;66.10;;;;;;5035372;28;20450;-28
2021/12/14 04:08:35;;;;;;;1.05;1.05;;;16.90;66.20;;;;;;5034826;28;20037;-21
2021/12/14 04:11:02;;;;;;;1.25;1.25;;;16.80;66.10;;;;;;5035597;28;20049;-25
2021/12/14 04:13:34;;;;;;;1.20;1.20;;;16.80;66.20;;;;;;5034685;28;20491;-27
2021/12/14 04:16:00;;;;;;;1.40;1.30;;;16.90;66.10;;;;;;5035511;28;20049;-28
2021/12/14 04:18:26;;;;;;;1.27;1.25;;;16.90;66.20;;;;;;5035430;28;20073;-26
2021/12/14 04:20:55;;;;;;;1.20;1.20;;;16.80;66.10;;;;;;5038863;28;20100;-24
2021/12/14 04:23:22;;;;;;;1.20;1.20;;;16.80;66.10;;;;;;5055391;28;20051;-23
2021/12/14 04:25:48;;;;;;;1.48;1.40;;;16.90;66.10;;;;;;5054554;28;20048;-27
2021/12/14 04:28:15;;;;;;;0.93;0.93;;;16.90;66.10;;;;;;5055325;28;20060;-23
2021/12/14 04:30:41;;;;;;;1.10;1.10;;;16.90;66.10;;;;;;5054458;28;20139;-24
2021/12/14 04:33:09;;;;;;;1.33;1.30;;;16.80;66.10;;;;;;5048988;28;20069;-29
2021/12/14 04:35:37;;;;;;;1.20;1.20;;;16.90;66.20;;;;;;5034612;28;20075;-27
2021/12/14 04:38:09;;;;;;;1.10;1.10;;;16.80;66.20;;;;;;5035236;28;20041;-25
2021/12/14 04:51:54;;;;;;;1.00;1.00;;;16.80;66.10;;;;;;5034552;28;20091;-27
2021/12/14 04:54:47;;;;;;;1.50;1.40;;;16.90;66.10;;;;;;4973142;28;20527;-25
2021/12/14 04:57:33;;;;;;;1.33;1.33;;;16.90;66.10;;;;;;5041770;28;20083;-25
2021/12/14 05:00:11;;;;;;;1.33;1.23;;;16.80;66.10;;;;;;5042639;28;20037;-24
2021/12/14 05:02:38;;;;;;;1.40;1.30;;;16.80;66.10;;;;;;5018525;28;20469;-29
2021/12/14 05:05:04;;;;;;;1.00;1.00;;;16.80;66.10;;;;;;5041815;28;20076;-29
2021/12/14 05:10:02;;;;;;;1.40;1.30;;;16.80;66.10;;;;;;5038864;28;20102;-25
2021/12/14 05:12:29;;;;;;;1.10;1.10;;;16.80;66.00;;;;;;5038499;28;20045;-31
2021/12/14 05:14:55;;;;;;;1.25;1.25;;;16.80;66.00;;;;;;5058020;28;20467;-28
2021/12/14 05:17:31;;;;;;;1.40;1.40;;;16.80;66.10;;;;;;5058627;28;20041;-24
2021/12/14 05:19:56;;;;;;;1.25;1.25;;;16.80;66.00;;;;;;5057928;28;20040;-28
2021/12/14 05:22:32;;;;;;;1.27;1.25;;;16.80;66.00;;;;;;5074969;28;20040;-23
2021/12/14 05:25:25;;;;;;;1.10;1.10;;;16.80;66.00;;;;;;5057970;28;20105;-25
2021/12/14 05:27:53;;;;;;;1.08;1.08;;;16.80;65.90;;;;;;5035707;28;20052;-24
2021/12/14 05:30:26;;;;;;;1.23;1.23;;;16.80;66.00;;;;;;5034757;28;20049;-22
2021/12/14 05:32:59;;;;;;;1.20;1.20;;;16.80;66.00;;;;;;5026147;28;20040;-21
2021/12/14 05:35:24;;;;;;;1.33;1.23;;;16.80;66.00;;;;;;5045010;28;20049;-27
2021/12/14 05:37:53;;;;;;;1.40;1.30;;;16.80;65.90;;;;;;5037742;28;20045;-27
2021/12/14 05:40:56;;;;;;;0.82;0.82;;;16.80;66.00;;;;;;5038387;28;20056;-21
2021/12/14 05:43:09;;;;;;;1.02;1.02;;;16.80;66.00;;;;;;5037120;28;20045;-23
2021/12/14 05:45:43;;;;;;;0.95;0.95;;;16.80;66.00;;;;;;5037240;28;20125;-27
2021/12/14 05:48:09;;;;;;;;;;;16.80;65.90;;;;;;5038449;28;20072;-25
2021/12/14 05:50:41;;;;;;;1.30;1.20;;;16.80;65.90;;;;;;5037450;28;19920;-25
2021/12/14 05:53:08;;;;;;;1.40;1.30;;;16.80;65.90;;;;;;5038167;28;20037;-29
2021/12/14 05:55:37;;;;;;;1.17;1.17;;;16.80;66.00;;;;;;5037459;28;20046;-28
2021/12/14 05:58:04;;;;;;;1.30;1.30;;;16.70;66.00;;;;;;5038097;28;20045;-26
2021/12/14 06:00:30;;;;;;;1.35;1.30;;;16.80;65.90;;;;;;5037798;28;20041;-25
2021/12/14 06:02:56;;;;;;;1.10;1.10;;;16.80;65.90;;;;;;5037260;28;20045;-30
2021/12/14 06:05:22;;;;;;;1.00;1.00;;;16.80;65.90;;;;;;5036883;28;20041;-25
2021/12/14 06:07:48;;;;;;;1.30;1.20;;;16.80;66.70;;;;;;5027812;28;20046;-26
2021/12/14 06:10:14;;;;;;;1.00;1.00;;;16.80;66.20;;;;;;5016190;28;20038;-28
2021/12/14 06:12:39;;;;;;;1.10;1.10;;;16.80;65.80;;;;;;5017490;28;20045;-27
2021/12/14 06:15:08;;;;;;;1.00;1.00;;;16.90;66.10;;;;;;5015742;28;20091;-24
2021/12/14 06:17:37;;;;;;;1.00;1.00;;;16.90;65.90;;;;;;5022168;28;20033;-24
2021/12/14 06:20:13;;;;;;;0.95;0.95;;;16.90;65.90;;;;;;5027676;28;20045;-23
2021/12/14 06:22:39;;;;;;;1.10;1.10;;;16.90;66.00;;;;;;5053343;28;20057;-24
2021/12/14 06:25:09;;;;;;;1.27;1.20;;;16.80;66.20;;;;;;5056310;28;20575;-27
2021/12/14 06:27:35;;;;;;;1.60;1.08;;;16.80;66.10;;;;;;5056834;28;20512;-27
2021/12/14 06:30:11;;;;;;;0.80;0.80;;;16.90;66.00;;;;;;5048798;28;20049;-27
2021/12/14 06:32:39;;;;;;;0.95;0.95;;;16.90;66.00;;;;;;4676111;28;9999962;-25
2021/12/14 06:35:18;;;;;;;2.15;1.10;;;16.90;66.10;;;;;;5032076;28;20388;-27
2021/12/14 06:40:33;;;;;;;1.00;1.00;;;16.90;66.40;;;;;;5033393;28;20051;-24
2021/12/14 06:43:01;;;;;;;1.00;1.00;;;16.90;66.10;;;;;;5032579;28;20037;-27
2021/12/14 06:45:39;;;;;;;4.15;1.17;;;16.90;66.10;;;;;;5025687;28;20048;-26
2021/12/14 06:48:20;;;;;;;5.63;1.10;;;17.00;66.20;;;;;;5023186;28;20060;-26
2021/12/14 06:50:47;;;;;;;1.13;1.13;;;16.90;67.10;;;;;;5017901;28;20101;-23
2021/12/14 06:53:14;;;;;;;1.23;1.10;;;16.90;67.10;;;;;;5019182;28;20045;-21
2021/12/14 06:55:40;;;;;;;1.10;1.10;;;17.00;67.10;;;;;;5036148;28;20095;-24
2021/12/14 06:58:11;;;;;;;1.10;1.10;;;17.00;67.20;;;;;;5036836;28;20049;-29
2021/12/14 07:00:38;;;;;;;1.90;1.05;;;17.00;66.90;;;;;;5036176;28;20046;-24
2021/12/14 07:03:04;;;;;;;1.80;0.98;;;16.90;67.30;;;;;;5023592;28;20533;-27
2021/12/14 07:05:29;;;;;;;4.35;1.05;;;17.00;67.40;;;;;;5026982;28;20029;-21
2021/12/14 07:07:57;;;;;;;0.88;0.88;;;16.90;67.10;;;;;;5036068;28;20049;-23
2021/12/14 07:10:22;;;;;;;1.20;1.10;;;16.90;67.10;;;;;;5036577;28;20589;-25
2021/12/14 07:12:48;;;;;;;0.82;0.82;;;16.90;67.30;;;;;;5035941;28;20065;-23
2021/12/14 07:15:17;;;;;;;1.95;0.95;;;16.90;67.50;;;;;;5036434;28;20053;-28
2021/12/14 07:17:48;;;;;;;1.05;1.05;;;17.00;67.50;;;;;;5035775;28;20048;-29
2021/12/14 07:20:14;;;;;;;1.55;1.45;;;16.90;68.40;;;;;;5035841;28;20402;-21
2021/12/14 07:22:42;;;;;;;0.98;0.98;;;16.90;68.40;;;;;;5054687;28;20037;-25
2021/12/14 07:25:09;;;;;;;1.30;1.30;;;16.90;68.60;;;;;;5056077;28;20025;-22
2021/12/14 07:27:47;;;;;;;1.33;1.05;;;16.90;67.60;;;;;;5056295;28;20506;-24
2021/12/14 07:30:28;;;;;;;2.38;1.33;;;16.90;68.40;;;;;;5060279;28;20029;-28
2021/12/14 07:33:12;;;;;;;1.30;1.20;;;16.90;68.50;;;;;;5070828;28;20048;-23
2021/12/14 07:36:11;;;;;;;1.98;1.42;;;16.80;68.40;;;;;;5045500;28;20045;-28
2021/12/14 07:38:53;;;;;;;1.10;1.10;;;16.70;68.50;;;;;;5002103;28;20041;-25
2021/12/14 07:41:33;;;;;;;2.65;1.23;;;16.70;68.80;;;;;;5049228;28;20040;-24
2021/12/14 07:44:06;;;;;;;1.25;1.25;;;16.90;68.20;;;;;;5055162;28;20053;-29
2021/12/14 07:46:41;;;;;;;1.00;1.00;;;16.90;67.90;;;;;;5055724;28;20045;-28
2021/12/14 07:49:10;;;;;;;1.50;1.40;;;16.80;68.30;;;;;;5034942;28;20053;-30
2021/12/14 07:51:39;;;;;;;1.35;1.25;;;16.70;68.40;;;;;;5035749;28;20068;-23
2021/12/14 07:54:16;;;;;;;1.30;1.10;;;16.80;68.10;;;;;;5026821;28;20129;-28
2021/12/14 07:56:52;;;;;;;1.17;1.08;;;16.80;68.00;;;;;;5034954;28;20042;-24
2021/12/14 07:59:30;;;;;;;1.50;1.10;;;16.80;68.00;;;;;;5033794;28;20048;-27
2021/12/14 08:02:12;;;;;;;1.10;1.00;;;16.80;68.00;;;;;;5029160;28;20053;-26
2021/12/14 08:04:39;;;;;;;1.60;1.23;;;16.70;68.30;;;;;;5035112;28;20038;-27
2021/12/14 08:07:05;;;;;;;2.75;1.17;;;16.70;68.20;;;;;;5035078;28;20108;-31
2021/12/14 08:09:47;;;;;;;1.92;1.20;;;16.70;68.40;;;;;;5035384;28;20045;-29
2021/12/14 08:12:32;;;;;;;1.02;1.02;;;16.60;68.30;;;;;;5043136;28;20499;-25
2021/12/14 08:15:15;;;;;;;1.27;0.93;;;16.70;68.50;;;;;;5033972;28;20057;-27
2021/12/14 08:17:41;;;;;;;1.25;1.17;;;16.60;68.30;;;;;;5034826;28;20124;-30
2021/12/14 08:20:13;;;;;;;1.02;1.02;;;16.60;68.20;;;;;;5035241;28;20063;-25
2021/12/14 08:22:40;;;;;;;1.10;1.10;;;16.60;68.30;;;;;;5053652;28;20433;-24
2021/12/14 08:25:08;;;;;;;1.38;1.08;;;16.60;68.10;;;;;;5055222;28;20036;-24
2021/12/14 08:27:33;;;;;;;1.55;1.10;;;16.60;68.20;;;;;;5055234;28;20041;-27
2021/12/14 08:30:01;;;;;;;2.05;1.00;;;16.60;68.00;;;;;;5054414;28;20176;-27
2021/12/14 08:32:31;;;;;;;1.67;1.08;;;16.60;67.90;;;;;;5061033;28;20068;-26
2021/12/14 08:34:56;;;;;;;1.00;1.00;;;16.70;67.90;;;;;;5036176;28;20042;-28
2021/12/14 08:37:28;;;;;;;1.08;0.98;;;16.70;67.90;;;;;;5047782;28;20040;-23
2021/12/14 08:39:58;;;;;;;1.20;1.20;;;16.70;67.70;;;;;;5046321;28;20128;-22
2021/12/14 08:42:49;;;;;;;1.02;0.90;;;16.60;67.70;;;;;;5045333;28;20060;-27
2021/12/14 08:45:25;;;;;;;1.10;0.98;;;16.70;67.80;;;;;;5038754;28;20671;-26
2021/12/14 08:48:03;;;;;;;1.00;1.00;;;16.70;67.60;;;;;;5038679;28;20131;-24
2021/12/14 08:50:34;;;;;;;0.98;0.98;;;16.70;67.60;;;;;;5039374;28;20038;-28
2021/12/14 08:52:59;;;;;;;0.98;0.90;;;16.70;67.50;;;;;;5038679;28;20041;-24
2021/12/14 08:55:27;;;;;;;1.00;1.00;;;16.70;67.50;;;;;;5039192;28;20037;-28
2021/12/14 08:57:52;;;;;;;0.90;0.90;;;16.70;67.20;;;;;;5038628;28;20133;-25
2021/12/14 09:00:25;;;;;;;1.25;1.15;;;16.70;67.10;;;;;;5038973;28;20083;-22
2021/12/14 09:02:53;;;;;;;1.00;1.00;;;16.70;67.20;;;;;;5038443;28;20044;-27
2021/12/14 09:05:24;;;;;;;0.82;0.82;;;16.70;67.20;;;;;;5038847;28;20033;-25
2021/12/14 09:07:49;;;;;;;0.88;0.88;;;16.70;67.20;;;;;;5038312;28;20494;-26
2021/12/14 09:10:18;;;;;;;1.92;1.20;;;16.70;67.10;;;;;;5039022;28;20068;-26
2021/12/14 09:12:45;;;;;;;3.33;1.17;;;16.70;67.20;;;;;;5038356;28;20455;-29
2021/12/14 09:15:23;;;;;;;1.23;0.85;;;16.80;67.10;;;;;;5038619;28;20065;-28
2021/12/14 09:17:50;;;;;;;1.20;1.10;;;16.80;66.90;;;;;;5038217;28;20038;-27
2021/12/14 09:20:21;;;;;;;1.30;1.20;;;16.80;66.80;;;;;;5038777;28;20517;-29
2021/12/14 09:22:50;;;;;;;0.88;0.88;;;16.70;66.70;;;;;;5027130;28;20068;-29
2021/12/14 09:25:18;;;;;;;1.05;0.95;;;16.70;66.80;;;;;;5030492;28;20037;-27
2021/12/14 09:27:44;;;;;;;2.75;0.90;;;16.80;66.90;;;;;;5029850;28;20033;-28
2021/12/14 09:30:12;;;;;;;0.95;0.95;;;16.80;66.70;;;;;;5026772;28;20042;-27
2021/12/14 09:32:38;;;;;;;1.25;1.17;;;16.70;66.90;;;;;;5030993;28;20064;-26
2021/12/14 09:35:05;;;;;;;1.40;0.82;;;16.70;66.70;;;;;;5076871;28;20062;-23
2021/12/14 09:37:32;;;;;;;1.10;1.10;;;16.70;66.70;;;;;;5078389;28;20633;-27
2021/12/14 09:40:00;;;;;;;1.20;1.17;;;16.70;66.70;;;;;;5077629;28;20033;-25
2021/12/14 09:42:29;;;;;;;0.70;0.70;;;16.70;66.90;;;;;;5078264;28;20512;-27
2021/12/14 09:44:56;;;;;;;2.40;1.05;;;16.70;66.70;;;;;;5077235;28;20044;-31
2021/12/14 09:47:26;;;;;;;0.95;0.95;;;16.70;66.80;;;;;;5078014;28;20037;-25
2021/12/14 09:49:53;;;;;;;0.95;0.95;;;16.70;66.70;;;;;;5077202;28;20060;-29
2021/12/14 09:52:30;;;;;;;0.95;0.95;;;16.70;66.80;;;;;;5077657;28;20119;-25
2021/12/14 09:54:56;;;;;;;0.90;0.90;;;16.70;66.80;;;;;;5077384;28;20044;-24
2021/12/14 09:57:33;;;;;;;0.93;0.93;;;16.70;66.70;;;;;;5077942;28;20123;-27
2021/12/14 10:00:01;;;;;;;0.95;0.95;;;16.70;66.70;;;;;;5065933;28;20048;-26
2021/12/14 10:02:33;;;;;;;1.13;1.13;;;16.70;66.70;;;;;;5057890;28;20123;-24
2021/12/14 10:05:11;;;;;;;0.90;0.90;;;16.70;66.60;;;;;;5057124;28;20127;-23
2021/12/14 10:07:38;;;;;;;0.90;0.90;;;16.70;66.70;;;;;;5057749;28;20039;-27
2021/12/14 10:10:04;;;;;;;1.10;1.02;;;16.70;66.70;;;;;;5036848;28;20048;-22
2021/12/14 10:15:34;;;;;;;0.85;0.85;;;16.70;66.70;;;;;;5045230;28;20041;-26
2021/12/14 10:18:12;;;;;;;0.98;0.90;;;16.70;66.60;;;;;;5036945;28;20076;-27
2021/12/14 10:20:52;;;;;;;0.73;0.73;;;16.70;66.50;;;;;;5039599;28;20041;-26
2021/12/14 10:23:18;;;;;;;1.10;1.00;;;16.70;66.50;;;;;;5077051;28;20044;-23
2021/12/14 10:25:44;;;;;;;1.00;1.00;;;16.70;66.50;;;;;;5077296;28;20037;-24
2021/12/14 10:28:10;;;;;;;2.55;1.00;;;16.70;66.50;;;;;;5076554;28;20036;-23
2021/12/14 10:30:38;;;;;;;0.70;0.70;;;16.70;66.50;;;;;;5077347;28;20047;-29
2021/12/14 10:33:04;;;;;;;0.82;0.82;;;16.70;66.40;;;;;;5070687;28;20090;-29
2021/12/14 10:35:36;;;;;;;2.08;1.10;;;16.70;66.30;;;;;;5057038;28;20052;-28
2021/12/14 10:38:22;;;;;;;2.03;1.15;;;16.70;66.30;;;;;;5039992;28;20041;-26
2021/12/14 10:43:36;;;;;;;1.00;1.00;;;16.70;66.30;;;;;;5042035;28;20056;-26
2021/12/14 10:46:22;;;;;;;1.10;1.10;;;16.70;66.30;;;;;;5044719;28;20033;-25
2021/12/14 10:48:48;;;;;;;1.40;1.00;;;16.70;66.20;;;;;;5044679;28;20521;-29
2021/12/14 10:51:16;;;;;;;0.75;0.75;;;16.70;66.30;;;;;;5045243;28;20038;-26
2021/12/14 10:53:45;;;;;;;1.00;1.00;;;16.80;66.30;;;;;;5044504;28;20120;-24
2021/12/14 10:56:19;;;;;;;1.13;1.02;;;16.80;66.20;;;;;;5019012;28;20387;-29
2021/12/14 10:58:46;;;;;;;0.95;0.90;;;16.80;66.20;;;;;;5044947;28;20098;-27
2021/12/14 11:01:20;;;;;;;0.98;0.98;;;16.80;66.20;;;;;;5036158;28;20033;-22
2021/12/14 11:03:51;;;;;;;1.15;1.15;;;16.80;66.20;;;;;;5036068;28;20124;-23
2021/12/14 11:06:22;;;;;;;0.90;0.90;;;16.80;66.20;;;;;;5036123;28;20049;-30
2021/12/14 11:11:36;;;;;;;1.35;1.33;;;16.80;66.10;;;;;;5023269;28;20040;-29
2021/12/14 11:14:07;;;;;;;0.80;0.80;;;16.70;66.10;;;;;;5035708;28;20056;-22
2021/12/14 11:19:34;;;;;;;1.20;1.10;;;16.70;66.00;;;;;;5035993;28;20048;-28
2021/12/14 11:22:23;;;;;;;0.90;0.90;;;16.70;65.90;;;;;;5049124;28;20057;-25
2021/12/14 11:24:53;;;;;;;0.82;0.82;;;16.80;65.90;;;;;;5056381;28;20044;-24
2021/12/14 11:27:22;;;;;;;0.80;0.80;;;16.70;66.10;;;;;;5044556;28;20465;-27
2021/12/14 11:29:55;;;;;;;0.90;0.90;;;16.60;66.20;;;;;;5022505;28;20050;-28
2021/12/14 11:32:22;;;;;;;1.17;1.10;;;16.70;66.20;;;;;;5024956;28;20106;-23
2021/12/14 11:34:48;;;;;;;1.15;1.15;;;16.70;66.10;;;;;;5036093;28;20049;-29
2021/12/14 11:37:16;;;;;;;1.20;1.10;;;16.70;66.10;;;;;;5035341;28;20091;-32
2021/12/14 11:39:44;;;;;;;0.95;0.95;;;16.70;66.10;;;;;;5036134;28;20056;-30
2021/12/14 11:42:20;;;;;;;1.02;1.02;;;16.70;66.10;;;;;;5035504;28;20041;-26
2021/12/14 11:44:47;;;;;;;1.10;1.10;;;16.70;66.00;;;;;;5035736;28;20049;-27
2021/12/14 11:50:01;;;;;;;1.42;1.00;;;16.70;65.90;;;;;;5035058;28;20080;-30
2021/12/14 11:52:39;;;;;;;1.15;1.05;;;16.70;65.90;;;;;;5035873;28;20084;-26
2021/12/14 11:55:24;;;;;;;1.00;1.00;;;16.70;66.00;;;;;;5035083;28;20046;-28
2021/12/14 11:58:04;;;;;;;0.77;0.77;;;16.70;66.00;;;;;;5030083;28;20072;-27
2021/12/14 12:00:31;;;;;;;1.00;1.00;;;16.70;65.90;;;;;;5031819;28;20040;-25
2021/12/14 12:02:57;;;;;;;1.10;1.10;;;16.70;65.90;;;;;;5028469;28;20042;-24
2021/12/14 12:05:30;;;;;;;1.00;1.00;;;16.70;65.90;;;;;;5015749;28;20562;-26
2021/12/14 12:10:53;;;;;;;1.80;1.00;;;16.70;66.00;;;;;;5015338;28;20041;-28
2021/12/14 12:13:19;;;;;;;0.95;0.95;;;16.70;65.90;;;;;;5015757;28;20034;-22
2021/12/14 12:15:45;;;;;;;1.08;1.08;;;16.70;65.80;;;;;;5015908;28;20515;-25
2021/12/14 12:18:11;;;;;;;1.00;1.00;;;16.70;65.80;;;;;;5015301;28;20120;-26
2021/12/14 12:20:38;;;;;;;1.02;0.90;;;16.70;66.20;;;;;;5017794;28;20176;-28
2021/12/14 12:23:08;;;;;;;1.00;1.00;;;16.70;65.90;;;;;;5034891;28;20047;-24
2021/12/14 12:25:36;;;;;;;1.00;1.00;;;16.70;65.80;;;;;;5035447;28;20079;-27
2021/12/14 12:28:08;;;;;;;0.98;0.98;;;16.70;65.90;;;;;;5034690;28;20033;-28
2021/12/14 12:30:43;;;;;;;0.80;0.80;;;16.70;65.80;;;;;;5035387;28;20069;-26
2021/12/14 12:33:17;;;;;;;0.80;0.80;;;16.70;66.20;;;;;;5029003;28;20076;-26
2021/12/14 12:35:47;;;;;;;1.02;1.00;;;16.70;66.00;;;;;;5055218;28;20401;-27
2021/12/14 12:38:19;;;;;;;1.10;1.10;;;16.70;66.20;;;;;;5025827;28;20616;-27
2021/12/14 12:40:49;;;;;;;0.90;0.90;;;16.70;66.20;;;;;;5024119;28;20038;-27
2021/12/14 12:43:28;;;;;;;0.93;0.90;;;16.70;66.20;;;;;;5022635;28;20102;-27
2021/12/14 12:46:14;;;;;;;0.70;0.70;;;16.70;65.90;;;;;;5023434;28;20087;-26
2021/12/14 12:49:08;;;;;;;0.70;0.70;;;16.60;66.00;;;;;;5024026;28;20045;-24
2021/12/14 12:51:46;;;;;;;0.93;0.90;;;16.60;67.00;;;;;;5012779;28;20033;-25
2021/12/14 12:54:33;;;;;;;0.82;0.82;;;16.60;66.60;;;;;;5019072;28;20506;-25
2021/12/14 12:57:14;;;;;;;0.70;0.70;;;16.60;67.00;;;;;;5022253;28;20046;-29
2021/12/14 12:59:49;;;;;;;1.42;0.80;;;16.50;66.70;;;;;;5028219;28;20133;-22
2021/12/14 13:02:21;;;;;;;1.52;0.95;;;16.60;67.10;;;;;;5021091;28;20046;-26
2021/12/14 13:04:50;;;;;;;0.93;0.93;;;16.60;67.00;;;;;;5034703;28;20120;-25
2021/12/14 13:07:16;;;;;;;0.82;0.82;;;16.60;66.70;;;;;;5034042;28;20556;-31
2021/12/14 13:10:03;;;;;;;1.00;0.90;;;16.60;66.90;;;;;;5034940;28;20042;-22
2021/12/14 13:12:57;;;;;;;0.90;0.90;;;16.60;66.80;;;;;;5034403;28;20525;-27
2021/12/14 13:15:46;;;;;;;1.10;1.10;;;16.70;66.40;;;;;;5034117;28;20041;-22
2021/12/14 13:18:46;;;;;;;1.02;0.93;;;16.70;66.40;;;;;;5028705;28;20049;-22
2021/12/14 13:21:26;;;;;;;1.20;1.20;;;16.70;67.20;;;;;;5040747;28;20064;-28
2021/12/14 13:23:58;;;;;;;0.80;0.80;;;16.70;66.40;;;;;;5054386;28;20049;-24
2021/12/14 13:26:40;;;;;;;1.00;0.98;;;16.70;66.30;;;;;;5054975;28;20072;-24
2021/12/14 13:29:12;;;;;;;1.00;1.00;;;16.70;66.60;;;;;;5057690;28;20047;-25
2021/12/14 13:31:44;;;;;;;1.10;0.93;;;16.70;66.70;;;;;;5058558;28;20048;-31
2021/12/14 13:34:13;;;;;;;1.00;1.00;;;16.70;66.50;;;;;;5042719;28;20144;-25
2021/12/14 13:36:39;;;;;;;0.93;0.93;;;16.70;66.70;;;;;;5038466;28;20441;-28
2021/12/14 13:39:06;;;;;;;0.82;0.82;;;16.70;66.70;;;;;;5037916;28;20095;-25
2021/12/14 13:41:40;;;;;;;0.85;0.85;;;16.70;66.50;;;;;;5051435;28;20563;-28
2021/12/14 13:44:06;;;;;;;0.88;0.88;;;16.60;66.60;;;;;;5057413;28;20049;-27
2021/12/14 13:46:31;;;;;;;1.05;1.00;;;16.70;66.70;;;;;;5058261;28;20041;-27
2021/12/14 13:48:57;;;;;;;1.10;1.00;;;16.70;66.70;;;;;;5058120;28;20052;-29
2021/12/14 13:51:26;;;;;;;1.10;1.10;;;16.70;66.60;;;;;;5057442;28;20033;-24
2021/12/14 13:53:55;;;;;;;0.90;0.90;;;16.80;66.50;;;;;;5058129;28;20048;-22
2021/12/14 13:56:30;;;;;;;0.75;0.75;;;16.70;66.50;;;;;;5057499;28;20069;-25